sensor_id;sensor_type;location;lat;lon;timestamp;temperature;humidity
5956;DHT22;3004;48.080;11.600;2022-09-09T04:43:03;12.20;99.90
5956;DHT22;3004;48.080;11.600;2022-09-09T04:45:54;12.10;99.90
5956;DHT22;3004;48.080;11.600;2022-09-09T04:51:27;12.10;99.90
5956;DHT22;3004;48.080;11.600;2022-09-09T04:54:28;12.00;99.90
5956;DHT22;3004;48.080;11.600;2022-09-09T04:57:15;12.10;99.90
5956;DHT22;3004;48.080;11.600;2022-09-09T04:59:43;12.10;99.90
5956;DHT22;3004;48.080;11.600;2022-09-09T05:02:11;12.10;99.90
5956;DHT22;3004;48.080;11.600;2022-09-09T05:04:38;12.10;99.90
5956;DHT22;3004;48.080;11.600;2022-09-09T05:07:05;12.10;99.90
5956;DHT22;3004;48.080;11.600;2022-09-09T05:09:32;12.10;99.90
5956;DHT22;3004;48.080;11.600;2022-09-09T05:11:59;12.10;99.90
5956;DHT22;3004;48.080;11.600;2022-09-09T05:14:26;12.20;99.90
5956;DHT22;3004;48.080;11.600;2022-09-09T05:16:57;12.10;99.90
5956;DHT22;3004;48.080;11.600;2022-09-09T05:19:24;12.20;99.90
5956;DHT22;3004;48.080;11.600;2022-09-09T05:21:51;12.20;99.90
5956;DHT22;3004;48.080;11.600;2022-09-09T05:24:19;12.20;99.90
5956;DHT22;3004;48.080;11.600;2022-09-09T05:26:45;12.20;99.90
5956;DHT22;3004;48.080;11.600;2022-09-09T05:32:38;12.30;99.90
5956;DHT22;3004;48.080;11.600;2022-09-09T05:41:57;12.50;99.90
5956;DHT22;3004;48.080;11.600;2022-09-09T05:47:53;12.50;99.90
5956;DHT22;3004;48.080;11.600;2022-09-09T05:50:28;12.50;99.90
5956;DHT22;3004;48.080;11.600;2022-09-09T05:52:55;12.50;99.90
5956;DHT22;3004;48.080;11.600;2022-09-09T05:55:23;12.60;99.90
5956;DHT22;3004;48.080;11.600;2022-09-09T05:57:51;12.60;99.90
5956;DHT22;3004;48.080;11.600;2022-09-09T06:00:21;12.70;99.90
5956;DHT22;3004;48.080;11.600;2022-09-09T06:02:51;12.70;99.90
5956;DHT22;3004;48.080;11.600;2022-09-09T06:05:25;12.70;99.90
5956;DHT22;3004;48.080;11.600;2022-09-09T06:11:18;12.80;99.90
5956;DHT22;3004;48.080;11.600;2022-09-09T06:13:45;12.90;99.90
5956;DHT22;3004;48.080;11.600;2022-09-09T06:16:14;13.00;99.90
5956;DHT22;3004;48.080;11.600;2022-09-09T06:18:42;13.00;99.90
5956;DHT22;3004;48.080;11.600;2022-09-09T06:24:38;13.20;99.90
5956;DHT22;3004;48.080;11.600;2022-09-09T06:27:19;13.20;99.90
5956;DHT22;3004;48.080;11.600;2022-09-09T06:29:46;13.30;99.90
5956;DHT22;3004;48.080;11.600;2022-09-09T06:32:14;13.30;99.90
5956;DHT22;3004;48.080;11.600;2022-09-09T06:34:41;13.30;99.90
5956;DHT22;3004;48.080;11.600;2022-09-09T06:37:08;13.40;99.90
5956;DHT22;3004;48.080;11.600;2022-09-09T06:39:39;13.40;99.90
5956;DHT22;3004;48.080;11.600;2022-09-09T06:42:07;13.50;99.90
5956;DHT22;3004;48.080;11.600;2022-09-09T06:45:07;13.60;99.90
5956;DHT22;3004;48.080;11.600;2022-09-09T07:01:08;13.90;99.90
5956;DHT22;3004;48.080;11.600;2022-09-09T07:03:35;13.90;99.90
5956;DHT22;3004;48.080;11.600;2022-09-09T07:06:03;14.00;99.90
5956;DHT22;3004;48.080;11.600;2022-09-09T07:08:32;14.00;99.90
5956;DHT22;3004;48.080;11.600;2022-09-09T07:11:02;14.00;99.90
5956;DHT22;3004;48.080;11.600;2022-09-09T07:13:31;14.00;99.90
5956;DHT22;3004;48.080;11.600;2022-09-09T07:16:04;14.10;99.90
5956;DHT22;3004;48.080;11.600;2022-09-09T07:18:33;14.20;99.90
5956;DHT22;3004;48.080;11.600;2022-09-09T07:21:01;14.20;99.90
5956;DHT22;3004;48.080;11.600;2022-09-09T07:23:29;14.30;99.90
5956;DHT22;3004;48.080;11.600;2022-09-09T07:25:56;14.30;99.90
5956;DHT22;3004;48.080;11.600;2022-09-09T07:28:27;14.30;99.90
5956;DHT22;3004;48.080;11.600;2022-09-09T07:30:58;14.30;99.90
5956;DHT22;3004;48.080;11.600;2022-09-09T07:33:29;14.40;99.90
5956;DHT22;3004;48.080;11.600;2022-09-09T07:36:03;14.30;99.90
5956;DHT22;3004;48.080;11.600;2022-09-09T07:38:31;14.40;99.90
5956;DHT22;3004;48.080;11.600;2022-09-09T07:41:05;14.40;99.90
5956;DHT22;3004;48.080;11.600;2022-09-09T07:43:36;14.50;99.90
5956;DHT22;3004;48.080;11.600;2022-09-09T07:46:04;14.60;99.90
5956;DHT22;3004;48.080;11.600;2022-09-09T07:48:53;14.60;99.90
5956;DHT22;3004;48.080;11.600;2022-09-09T07:51:30;14.60;99.90
5956;DHT22;3004;48.080;11.600;2022-09-09T08:30:27;15.50;99.90
5956;DHT22;3004;48.080;11.600;2022-09-09T08:36:31;15.60;99.90
5956;DHT22;3004;48.080;11.600;2022-09-09T08:38:59;15.70;99.90
5956;DHT22;3004;48.080;11.600;2022-09-09T08:41:49;15.70;99.90
5956;DHT22;3004;48.080;11.600;2022-09-09T08:44:45;15.80;99.90
5956;DHT22;3004;48.080;11.600;2022-09-09T08:47:37;15.80;99.90
5956;DHT22;3004;48.080;11.600;2022-09-09T08:50:19;15.80;99.90
5956;DHT22;3004;48.080;11.600;2022-09-09T08:52:54;15.80;99.90
5956;DHT22;3004;48.080;11.600;2022-09-09T08:55:33;15.80;99.90
5956;DHT22;3004;48.080;11.600;2022-09-09T08:58:11;15.70;99.90
5956;DHT22;3004;48.080;11.600;2022-09-09T09:01:22;15.70;99.90
5956;DHT22;3004;48.080;11.600;2022-09-09T09:41:12;16.20;99.90
5956;DHT22;3004;48.080;11.600;2022-09-09T09:43:58;16.10;99.90
5956;DHT22;3004;48.080;11.600;2022-09-09T09:57:26;16.00;99.90
5956;DHT22;3004;48.080;11.600;2022-09-09T10:54:57;16.00;99.90
5956;DHT22;3004;48.080;11.600;2022-09-09T11:04:44;16.20;99.90
5956;DHT22;3004;48.080;11.600;2022-09-09T11:24:45;16.60;99.90
5956;DHT22;3004;48.080;11.600;2022-09-09T11:30:46;16.80;99.90
5956;DHT22;3004;48.080;11.600;2022-09-09T11:36:55;16.80;99.90
5956;DHT22;3004;48.080;11.600;2022-09-09T11:49:45;17.00;99.90
5956;DHT22;3004;48.080;11.600;2022-09-09T11:59:27;17.50;99.90
5956;DHT22;3004;48.080;11.600;2022-09-09T12:01:57;17.50;99.90
5956;DHT22;3004;48.080;11.600;2022-09-09T12:04:59;17.50;99.90
5956;DHT22;3004;48.080;11.600;2022-09-09T12:07:39;17.40;99.90
5956;DHT22;3004;48.080;11.600;2022-09-09T12:10:30;17.50;99.90
5956;DHT22;3004;48.080;11.600;2022-09-09T12:13:26;17.50;99.90
5956;DHT22;3004;48.080;11.600;2022-09-09T12:15:56;17.50;99.90
5956;DHT22;3004;48.080;11.600;2022-09-09T12:18:32;17.60;99.90
5956;DHT22;3004;48.080;11.600;2022-09-09T12:21:25;17.60;99.90
5956;DHT22;3004;48.080;11.600;2022-09-09T12:24:14;17.50;99.90
5956;DHT22;3004;48.080;11.600;2022-09-09T12:27:11;17.50;99.90
5956;DHT22;3004;48.080;11.600;2022-09-09T12:29:50;17.40;99.90
5956;DHT22;3004;48.080;11.600;2022-09-09T12:32:27;17.40;99.90
5956;DHT22;3004;48.080;11.600;2022-09-09T12:35:03;17.50;99.90
5956;DHT22;3004;48.080;11.600;2022-09-09T12:37:38;17.60;99.90
5956;DHT22;3004;48.080;11.600;2022-09-09T12:40:23;17.50;99.90
5956;DHT22;3004;48.080;11.600;2022-09-09T12:42:54;17.60;99.90
5956;DHT22;3004;48.080;11.600;2022-09-09T12:45:30;17.60;99.90
5956;DHT22;3004;48.080;11.600;2022-09-09T12:48:00;17.70;99.90
5956;DHT22;3004;48.080;11.600;2022-09-09T12:50:32;17.80;99.90
5956;DHT22;3004;48.080;11.600;2022-09-09T12:53:08;17.80;99.90
5956;DHT22;3004;48.080;11.600;2022-09-09T12:56:00;17.80;99.90
5956;DHT22;3004;48.080;11.600;2022-09-09T12:58:32;17.80;99.90
5956;DHT22;3004;48.080;11.600;2022-09-09T13:01:04;17.80;99.90
5956;DHT22;3004;48.080;11.600;2022-09-09T13:03:45;17.70;99.90
5956;DHT22;3004;48.080;11.600;2022-09-09T13:06:24;17.70;99.90
5956;DHT22;3004;48.080;11.600;2022-09-09T13:09:02;17.60;99.90
5956;DHT22;3004;48.080;11.600;2022-09-09T13:11:40;17.50;99.90
5956;DHT22;3004;48.080;11.600;2022-09-09T13:14:20;17.60;99.90
5956;DHT22;3004;48.080;11.600;2022-09-09T13:16:58;17.50;99.90
5956;DHT22;3004;48.080;11.600;2022-09-09T13:19:43;17.50;99.90
5956;DHT22;3004;48.080;11.600;2022-09-09T13:22:12;17.50;99.90
5956;DHT22;3004;48.080;11.600;2022-09-09T13:24:59;17.50;99.90
5956;DHT22;3004;48.080;11.600;2022-09-09T13:27:30;17.50;99.90
5956;DHT22;3004;48.080;11.600;2022-09-09T13:31:39;17.40;99.90
5956;DHT22;3004;48.080;11.600;2022-09-09T13:33:18;17.40;99.90
5956;DHT22;3004;48.080;11.600;2022-09-09T13:35:58;17.40;99.90
5956;DHT22;3004;48.080;11.600;2022-09-09T13:38:30;17.30;99.90
5956;DHT22;3004;48.080;11.600;2022-09-09T13:41:09;17.20;99.90
5956;DHT22;3004;48.080;11.600;2022-09-09T13:43:52;17.10;99.90
5956;DHT22;3004;48.080;11.600;2022-09-09T13:46:32;17.10;99.90
5956;DHT22;3004;48.080;11.600;2022-09-09T13:49:20;17.10;99.90
5956;DHT22;3004;48.080;11.600;2022-09-09T13:52:10;17.10;99.90
5956;DHT22;3004;48.080;11.600;2022-09-09T13:54:49;17.00;99.90
5956;DHT22;3004;48.080;11.600;2022-09-09T13:58:16;16.90;99.90
5956;DHT22;3004;48.080;11.600;2022-09-09T14:00:47;16.80;99.90
5956;DHT22;3004;48.080;11.600;2022-09-09T14:03:30;16.70;99.90
5956;DHT22;3004;48.080;11.600;2022-09-09T14:06:16;16.70;99.90
5956;DHT22;3004;48.080;11.600;2022-09-09T14:08:52;16.70;99.90
5956;DHT22;3004;48.080;11.600;2022-09-09T14:11:47;16.70;99.90
5956;DHT22;3004;48.080;11.600;2022-09-09T14:14:41;16.80;99.90
5956;DHT22;3004;48.080;11.600;2022-09-09T14:17:17;16.80;99.90
5956;DHT22;3004;48.080;11.600;2022-09-09T14:19:47;16.80;99.90
5956;DHT22;3004;48.080;11.600;2022-09-09T14:22:18;16.80;99.90
5956;DHT22;3004;48.080;11.600;2022-09-09T14:25:13;16.80;99.90
5956;DHT22;3004;48.080;11.600;2022-09-09T14:27:41;16.80;99.90
5956;DHT22;3004;48.080;11.600;2022-09-09T14:30:21;16.80;99.90
5956;DHT22;3004;48.080;11.600;2022-09-09T14:32:55;16.90;99.90
5956;DHT22;3004;48.080;11.600;2022-09-09T14:35:29;17.00;99.90
5956;DHT22;3004;48.080;11.600;2022-09-09T14:38:07;16.90;99.90
5956;DHT22;3004;48.080;11.600;2022-09-09T14:40:47;16.90;99.90
5956;DHT22;3004;48.080;11.600;2022-09-09T14:46:20;16.90;99.90
5956;DHT22;3004;48.080;11.600;2022-09-09T14:49:17;16.90;99.90
5956;DHT22;3004;48.080;11.600;2022-09-09T14:52:05;16.90;99.90
5956;DHT22;3004;48.080;11.600;2022-09-09T14:55:36;16.90;99.90
5956;DHT22;3004;48.080;11.600;2022-09-09T15:01:33;16.90;99.90
5956;DHT22;3004;48.080;11.600;2022-09-09T15:08:00;16.90;99.90
5956;DHT22;3004;48.080;11.600;2022-09-09T15:14:09;16.80;99.90
5956;DHT22;3004;48.080;11.600;2022-09-09T15:37:09;16.70;99.90
5956;DHT22;3004;48.080;11.600;2022-09-09T15:43:18;16.50;99.90
5956;DHT22;3004;48.080;11.600;2022-09-09T15:59:55;16.50;99.90
5956;DHT22;3004;48.080;11.600;2022-09-09T16:06:20;16.60;99.90
5956;DHT22;3004;48.080;11.600;2022-09-09T16:08:58;16.70;99.90
5956;DHT22;3004;48.080;11.600;2022-09-09T16:11:29;16.70;99.90
5956;DHT22;3004;48.080;11.600;2022-09-09T16:14:03;16.60;99.90
5956;DHT22;3004;48.080;11.600;2022-09-09T16:16:41;16.50;99.90
5956;DHT22;3004;48.080;11.600;2022-09-09T16:19:10;16.50;99.90
5956;DHT22;3004;48.080;11.600;2022-09-09T16:21:41;16.50;99.90
5956;DHT22;3004;48.080;11.600;2022-09-09T16:24:16;16.50;99.90
5956;DHT22;3004;48.080;11.600;2022-09-09T16:26:47;16.60;99.90
5956;DHT22;3004;48.080;11.600;2022-09-09T16:29:35;16.70;99.90
5956;DHT22;3004;48.080;11.600;2022-09-09T16:32:04;16.70;99.90
5956;DHT22;3004;48.080;11.600;2022-09-09T16:34:33;16.80;99.90
5956;DHT22;3004;48.080;11.600;2022-09-09T16:37:09;16.90;99.90
5956;DHT22;3004;48.080;11.600;2022-09-09T16:39:36;16.90;99.90
5956;DHT22;3004;48.080;11.600;2022-09-09T16:46:02;17.00;99.90
5956;DHT22;3004;48.080;11.600;2022-09-09T17:16:05;16.10;99.90
5956;DHT22;3004;48.080;11.600;2022-09-09T17:39:15;15.00;99.90
5956;DHT22;3004;48.080;11.600;2022-09-09T18:00:41;14.20;99.90
5956;DHT22;3004;48.080;11.600;2022-09-09T18:06:59;14.10;99.90
5956;DHT22;3004;48.080;11.600;2022-09-09T18:16:26;13.80;99.90
5956;DHT22;3004;48.080;11.600;2022-09-09T18:39:15;13.50;99.90
5956;DHT22;3004;48.080;11.600;2022-09-09T18:45:27;13.30;99.90
5956;DHT22;3004;48.080;11.600;2022-09-09T18:51:21;13.20;99.90
5956;DHT22;3004;48.080;11.600;2022-09-09T18:57:48;13.20;99.90
5956;DHT22;3004;48.080;11.600;2022-09-09T19:13:38;13.00;99.90
5956;DHT22;3004;48.080;11.600;2022-09-09T19:23:28;12.90;99.90
5956;DHT22;3004;48.080;11.600;2022-09-09T19:29:22;13.00;99.90
5956;DHT22;3004;48.080;11.600;2022-09-09T19:31:50;13.00;99.90
5956;DHT22;3004;48.080;11.600;2022-09-09T19:34:18;13.10;99.90
5956;DHT22;3004;48.080;11.600;2022-09-09T19:40:09;13.40;99.90
5956;DHT22;3004;48.080;11.600;2022-09-09T19:46:01;13.80;99.90
5956;DHT22;3004;48.080;11.600;2022-09-09T19:51:50;13.80;99.90
5956;DHT22;3004;48.080;11.600;2022-09-09T19:57:42;13.70;99.90
5956;DHT22;3004;48.080;11.600;2022-09-09T20:03:34;13.60;99.90
5956;DHT22;3004;48.080;11.600;2022-09-09T20:09:24;13.50;99.90
5956;DHT22;3004;48.080;11.600;2022-09-09T20:15:27;13.30;99.90
5956;DHT22;3004;48.080;11.600;2022-09-09T20:21:20;13.20;99.90
5956;DHT22;3004;48.080;11.600;2022-09-09T20:27:11;13.10;99.90
5956;DHT22;3004;48.080;11.600;2022-09-09T20:33:06;12.90;99.90
5956;DHT22;3004;48.080;11.600;2022-09-09T20:39:00;13.00;99.90
5956;DHT22;3004;48.080;11.600;2022-09-09T20:44:50;12.80;99.90
5956;DHT22;3004;48.080;11.600;2022-09-09T20:51:03;12.80;99.90
5956;DHT22;3004;48.080;11.600;2022-09-09T20:53:31;12.70;99.90
5956;DHT22;3004;48.080;11.600;2022-09-09T20:56:09;12.60;99.90
5956;DHT22;3004;48.080;11.600;2022-09-09T20:58:37;12.60;99.90
5956;DHT22;3004;48.080;11.600;2022-09-09T21:01:06;12.60;99.90
5956;DHT22;3004;48.080;11.600;2022-09-09T21:03:35;12.60;99.90
5956;DHT22;3004;48.080;11.600;2022-09-09T21:06:05;12.60;99.90
5956;DHT22;3004;48.080;11.600;2022-09-09T21:08:34;12.50;99.90
5956;DHT22;3004;48.080;11.600;2022-09-09T21:11:04;12.50;99.90
5956;DHT22;3004;48.080;11.600;2022-09-09T21:13:38;12.50;99.90
5956;DHT22;3004;48.080;11.600;2022-09-09T21:16:25;12.50;99.90
5956;DHT22;3004;48.080;11.600;2022-09-09T21:18:56;12.40;99.90
5956;DHT22;3004;48.080;11.600;2022-09-09T21:21:30;12.40;99.90
5956;DHT22;3004;48.080;11.600;2022-09-09T21:24:02;12.40;99.90
5956;DHT22;3004;48.080;11.600;2022-09-09T21:26:35;12.50;99.90
5956;DHT22;3004;48.080;11.600;2022-09-09T21:29:05;12.50;99.90
5956;DHT22;3004;48.080;11.600;2022-09-09T21:31:32;12.60;99.90
5956;DHT22;3004;48.080;11.600;2022-09-09T21:34:01;12.60;99.90
5956;DHT22;3004;48.080;11.600;2022-09-09T21:36:28;12.60;99.90
5956;DHT22;3004;48.080;11.600;2022-09-09T22:09:14;12.60;99.90
5956;DHT22;3004;48.080;11.600;2022-09-09T22:11:59;12.50;99.90
5956;DHT22;3004;48.080;11.600;2022-09-09T22:14:40;12.40;99.90
5956;DHT22;3004;48.080;11.600;2022-09-09T22:17:22;12.30;99.90
5956;DHT22;3004;48.080;11.600;2022-09-09T22:19:49;12.30;99.90
5956;DHT22;3004;48.080;11.600;2022-09-09T22:22:18;12.40;99.90
5956;DHT22;3004;48.080;11.600;2022-09-09T22:24:49;12.30;99.90
5956;DHT22;3004;48.080;11.600;2022-09-09T22:27:17;12.20;99.90
5956;DHT22;3004;48.080;11.600;2022-09-09T22:29:44;12.20;99.90
5956;DHT22;3004;48.080;11.600;2022-09-09T22:32:12;12.10;99.90
5956;DHT22;3004;48.080;11.600;2022-09-09T22:34:42;12.10;99.90
5956;DHT22;3004;48.080;11.600;2022-09-09T22:37:15;12.20;99.90
5956;DHT22;3004;48.080;11.600;2022-09-09T22:39:44;12.10;99.90
5956;DHT22;3004;48.080;11.600;2022-09-09T22:42:13;12.00;99.90
5956;DHT22;3004;48.080;11.600;2022-09-09T22:44:40;12.00;99.90
5956;DHT22;3004;48.080;11.600;2022-09-09T22:54:24;11.90;99.90
5956;DHT22;3004;48.080;11.600;2022-09-09T22:57:34;11.80;99.90
5956;DHT22;3004;48.080;11.600;2022-09-09T23:30:40;11.10;99.90
5956;DHT22;3004;48.080;11.600;2022-09-09T23:36:38;11.00;99.90
5956;DHT22;3004;48.080;11.600;2022-09-09T23:39:29;11.00;99.90
5956;DHT22;3004;48.080;11.600;2022-09-09T23:42:24;10.90;99.90
5956;DHT22;3004;48.080;11.600;2022-09-09T23:45:06;10.90;99.90
5956;DHT22;3004;48.080;11.600;2022-09-09T23:48:05;10.80;99.90
5956;DHT22;3004;48.080;11.600;2022-09-09T23:54:06;10.80;99.90
